createdAt,value
2019-04-01T00:02:05.198Z,11.63
2019-04-01T00:04:51.396Z,8.23
2019-04-01T00:07:37.275Z,10.73
2019-04-01T00:10:23.505Z,6.33
2019-04-01T00:13:09.704Z,10.67
2019-04-01T00:15:55.828Z,6.60
2019-04-01T00:18:42.169Z,10.77
2019-04-01T00:21:28.091Z,8.93
2019-04-01T00:24:14.112Z,7.17
2019-04-01T00:27:00.076Z,11.00
2019-04-01T00:29:45.904Z,7.10
2019-04-01T00:32:32.128Z,6.07
2019-04-01T00:35:18.022Z,7.07
2019-04-01T00:38:03.933Z,8.73
2019-04-01T00:40:50.033Z,6.33
2019-04-01T00:44:01.151Z,8.00
2019-04-01T00:46:47.631Z,12.57
2019-04-01T00:49:33.958Z,12.07
2019-04-01T00:52:19.923Z,8.13
2019-04-01T00:55:05.866Z,5.63
2019-04-01T00:57:51.778Z,8.50
2019-04-01T01:00:37.871Z,9.97
2019-04-01T01:03:24.089Z,9.10
2019-04-01T01:06:10.007Z,8.47
2019-04-01T01:08:55.877Z,10.53
2019-04-01T01:11:41.818Z,7.07
2019-04-01T01:14:30.368Z,8.93
2019-04-01T01:17:16.760Z,10.23
2019-04-01T01:20:02.656Z,5.33
2019-04-01T01:22:48.955Z,7.07
2019-04-01T01:25:34.807Z,7.13
2019-04-01T01:28:20.628Z,8.57
2019-04-01T01:31:06.858Z,6.93
2019-04-01T01:33:53.036Z,8.97
2019-04-01T01:36:39.313Z,9.87
2019-04-01T01:39:25.880Z,9.20
2019-04-01T01:42:12.140Z,7.60
2019-04-01T01:44:58.203Z,7.10
2019-04-01T01:47:44.773Z,10.50
2019-04-01T01:50:31.132Z,7.77
2019-04-01T01:53:17.236Z,8.33
2019-04-01T01:56:03.065Z,8.03
2019-04-01T01:58:50.097Z,6.37
2019-04-01T02:01:36.088Z,7.47
2019-04-01T02:04:22.287Z,10.20
2019-04-01T02:07:08.436Z,5.80
2019-04-01T02:09:56.759Z,6.20
2019-04-01T02:12:43.037Z,8.27
2019-04-01T02:15:29.266Z,9.67
2019-04-01T02:18:17.702Z,7.40
2019-04-01T02:21:03.506Z,8.50
2019-04-01T02:23:49.500Z,6.40
2019-04-01T02:26:38.553Z,7.17
2019-04-01T02:29:24.715Z,8.00
2019-04-01T02:32:10.678Z,8.93
2019-04-01T02:34:56.656Z,9.30
2019-04-01T02:37:43.256Z,7.87
2019-04-01T02:40:29.449Z,8.53
2019-04-01T02:43:15.399Z,7.53
2019-04-01T02:46:01.377Z,6.73
2019-04-01T02:48:49.689Z,13.13
2019-04-01T02:51:35.819Z,5.27
2019-04-01T02:54:22.021Z,6.20
2019-04-01T02:57:07.907Z,7.70
2019-04-01T02:59:56.908Z,9.07
2019-04-01T03:02:42.872Z,6.63
2019-04-01T03:05:29.195Z,8.27
2019-04-01T03:08:18.541Z,8.93
2019-04-01T03:11:09.824Z,8.43
2019-04-01T03:13:53.538Z,7.87
2019-04-01T03:16:39.484Z,8.57
2019-04-01T03:19:26.344Z,9.20
2019-04-01T03:22:12.387Z,8.80
2019-04-01T03:24:58.456Z,4.77
2019-04-01T03:27:44.571Z,7.53
2019-04-01T03:30:33.661Z,5.93
2019-04-01T03:33:19.983Z,8.30
2019-04-01T03:36:07.724Z,6.83
2019-04-01T03:38:54.175Z,10.37
2019-04-01T03:41:40.145Z,6.20
2019-04-01T03:44:26.128Z,5.47
2019-04-01T03:47:12.426Z,3.30
2019-04-01T03:49:58.652Z,6.90
2019-04-01T03:52:44.646Z,7.47
2019-04-01T03:55:30.815Z,7.23
2019-04-01T03:58:16.963Z,6.47
2019-04-01T04:01:03.463Z,7.50
2019-04-01T04:03:49.749Z,5.30
2019-04-01T04:06:38.834Z,7.27
2019-04-01T04:09:24.976Z,5.30
2019-04-01T04:12:11.111Z,6.13
2019-04-01T04:14:57.028Z,9.80
2019-04-01T04:17:43.870Z,6.93
2019-04-01T04:20:29.792Z,5.37
2019-04-01T04:23:15.765Z,9.27
2019-04-01T04:26:01.766Z,8.77
2019-04-01T04:28:47.735Z,11.47
2019-04-01T04:31:36.692Z,9.93
2019-04-01T04:34:22.813Z,7.40
2019-04-01T04:37:09.098Z,8.77
2019-04-01T04:39:56.303Z,9.20
2019-04-01T04:42:42.608Z,8.23
2019-04-01T04:45:28.743Z,7.70
2019-04-01T04:48:14.765Z,10.03
2019-04-01T04:51:00.666Z,9.83
2019-04-01T04:53:46.676Z,6.07
2019-04-01T04:56:32.886Z,5.97
2019-04-01T04:59:18.943Z,10.23
2019-04-01T05:02:05.268Z,12.20
2019-04-01T05:04:52.177Z,9.50
2019-04-01T05:07:38.325Z,12.03
2019-04-01T05:10:25.178Z,15.27
2019-04-01T05:13:10.873Z,8.50
2019-04-01T05:15:56.974Z,8.03
2019-04-01T05:18:43.138Z,5.57
2019-04-01T05:21:29.101Z,9.83
2019-04-01T05:24:14.996Z,6.50
2019-04-01T05:27:01.434Z,10.23
2019-04-01T05:29:47.537Z,10.23
2019-04-01T05:32:33.494Z,10.87
2019-04-01T05:35:19.725Z,8.20
2019-04-01T05:38:07.918Z,12.97
2019-04-01T05:40:54.040Z,8.90
2019-04-01T05:43:40.090Z,9.90
2019-04-01T05:46:26.005Z,8.50
2019-04-01T05:49:11.969Z,12.07
2019-04-01T05:51:58.486Z,16.67
2019-04-01T05:54:44.709Z,17.17
2019-04-01T05:57:32.980Z,8.27
2019-04-01T06:00:24.914Z,9.37
2019-04-01T06:03:11.139Z,5.73
2019-04-01T06:05:57.077Z,10.57
2019-04-01T06:08:43.016Z,9.37
2019-04-01T06:11:29.416Z,8.97
2019-04-01T06:14:15.639Z,7.50
2019-04-01T06:17:01.809Z,8.17
2019-04-01T06:19:47.768Z,11.53
2019-04-01T06:22:33.738Z,10.10
2019-04-01T06:25:20.032Z,8.53
2019-04-01T06:28:06.386Z,11.10
2019-04-01T06:30:52.389Z,9.87
2019-04-01T06:33:41.042Z,11.70
2019-04-01T06:36:26.997Z,9.93
2019-04-01T06:39:13.334Z,12.27
2019-04-01T06:41:59.783Z,9.63
2019-04-01T06:44:46.111Z,15.07
2019-04-01T06:47:32.329Z,13.67
2019-04-01T06:50:18.289Z,7.20
2019-04-01T06:53:05.037Z,7.90
2019-04-01T06:55:51.058Z,11.00
2019-04-01T06:58:37.316Z,8.47
2019-04-01T07:01:23.251Z,11.73
2019-04-01T07:04:09.330Z,8.77
2019-04-01T07:06:55.285Z,12.53
2019-04-01T07:09:41.575Z,8.77
2019-04-01T07:12:27.551Z,10.20
2019-04-01T07:15:13.797Z,9.50
2019-04-01T07:17:59.742Z,7.30
2019-04-01T07:20:45.978Z,12.53
2019-04-01T07:23:31.789Z,9.67
2019-04-01T07:26:17.756Z,8.50
2019-04-01T07:29:03.809Z,7.87
2019-04-01T07:31:49.745Z,11.87
2019-04-01T07:34:35.896Z,13.00
2019-04-01T07:37:22.159Z,11.90
2019-04-01T07:40:08.155Z,10.77
2019-04-01T07:42:54.840Z,8.83
2019-04-01T07:45:41.265Z,10.57
2019-04-01T07:48:27.503Z,10.30
2019-04-01T07:51:13.551Z,6.90
2019-04-01T07:53:59.775Z,12.00
2019-04-01T07:56:48.715Z,9.93
2019-04-01T07:59:34.722Z,8.10
2019-04-01T08:02:20.609Z,11.10
2019-04-01T08:05:06.545Z,7.67
2019-04-01T08:07:52.802Z,10.40
2019-04-01T08:10:38.737Z,19.80
2019-04-01T08:13:24.764Z,10.17
2019-04-01T08:16:13.754Z,15.53
2019-04-01T08:18:59.772Z,12.03
2019-04-01T08:21:45.734Z,19.27
2019-04-01T08:24:31.745Z,12.63
2019-04-01T08:27:17.866Z,13.43
2019-04-01T08:30:04.305Z,15.57
2019-04-01T08:32:50.275Z,12.83
2019-04-01T08:35:36.161Z,16.60
2019-04-01T08:38:22.139Z,10.70
2019-04-01T08:41:08.069Z,15.80
2019-04-01T08:43:54.370Z,18.30
2019-04-01T08:46:40.600Z,15.10
2019-04-01T08:49:26.556Z,13.57
2019-04-01T08:52:12.654Z,12.00
2019-04-01T08:54:58.660Z,12.97
2019-04-01T08:57:44.686Z,11.83
2019-04-01T09:00:33.567Z,10.90
2019-04-01T09:03:19.562Z,14.50
2019-04-01T09:06:07.911Z,10.70
2019-04-01T09:08:54.392Z,10.87
2019-04-01T09:11:40.735Z,16.10
2019-04-01T09:14:26.997Z,12.60
2019-04-01T09:17:13.071Z,13.10
2019-04-01T09:19:59.254Z,10.63
2019-04-01T09:22:45.171Z,15.87
2019-04-01T09:25:34.051Z,11.53
2019-04-01T09:28:20.418Z,12.90
2019-04-01T09:31:06.639Z,11.47
2019-04-01T09:33:53.099Z,11.10
2019-04-01T09:36:39.007Z,9.77
2019-04-01T09:39:28.079Z,11.97
2019-04-01T09:42:13.966Z,12.23
2019-04-01T09:45:00.379Z,16.17
2019-04-01T09:47:46.935Z,12.37
2019-04-01T09:50:32.964Z,14.27
2019-04-01T09:53:19.207Z,16.53
2019-04-01T09:56:05.307Z,15.33
2019-04-01T09:58:51.358Z,15.77
2019-04-01T10:01:37.616Z,13.47
2019-04-01T10:04:23.906Z,13.33
2019-04-01T10:07:09.869Z,15.70
2019-04-01T10:09:56.176Z,15.00
2019-04-01T10:12:45.003Z,14.83
2019-04-01T10:15:31.377Z,15.43
2019-04-01T10:18:17.303Z,15.33
2019-04-01T10:21:03.328Z,13.23
2019-04-01T10:23:49.283Z,11.07
2019-04-01T10:26:35.265Z,13.97
2019-04-01T10:29:21.679Z,13.10
2019-04-01T10:32:10.207Z,15.37
2019-04-01T10:34:56.382Z,15.07
2019-04-01T10:37:44.752Z,14.53
2019-04-01T10:40:30.844Z,15.50
2019-04-01T10:43:16.929Z,13.27
2019-04-01T10:46:03.422Z,10.93
2019-04-01T10:48:49.731Z,15.87
2019-04-01T10:51:35.899Z,14.23
2019-04-01T10:54:22.152Z,12.83
2019-04-01T10:57:08.543Z,15.70
2019-04-01T10:59:54.515Z,15.10
2019-04-01T11:02:40.782Z,14.67
2019-04-01T11:05:29.614Z,13.80
2019-04-01T11:08:33.917Z,15.70
2019-04-01T11:11:19.828Z,13.80
2019-04-01T11:14:05.829Z,15.93
2019-04-01T11:16:52.090Z,16.93
2019-04-01T11:19:39.457Z,16.27
2019-04-01T11:22:25.868Z,13.33
2019-04-01T11:25:12.200Z,15.07
2019-04-01T11:27:58.145Z,11.93
2019-04-01T11:30:44.189Z,14.23
2019-04-01T11:33:30.324Z,16.87
2019-04-01T11:36:16.738Z,13.63
2019-04-01T11:39:02.704Z,15.93
2019-04-01T11:41:49.096Z,15.47
2019-04-01T11:44:35.769Z,14.30
2019-04-01T11:47:22.182Z,13.47
2019-04-01T11:50:08.695Z,14.50
2019-04-01T11:52:54.821Z,15.13
2019-04-01T11:55:41.536Z,12.77
2019-04-01T11:58:27.983Z,12.00
2019-04-01T12:01:14.875Z,12.57
2019-04-01T12:04:03.318Z,11.90
2019-04-01T12:06:49.627Z,13.27
2019-04-01T12:09:36.189Z,13.10
2019-04-01T12:12:24.396Z,12.53
2019-04-01T12:15:12.466Z,13.20
2019-04-01T12:17:58.952Z,11.80
2019-04-01T12:20:44.875Z,13.53
2019-04-01T12:23:30.870Z,17.30
2019-04-01T12:26:20.660Z,14.70
2019-04-01T12:29:06.913Z,14.77
2019-04-01T12:31:52.940Z,13.53
2019-04-01T12:34:42.125Z,12.97
2019-04-01T12:37:30.070Z,13.80
2019-04-01T12:40:15.765Z,15.50
2019-04-01T12:43:02.730Z,10.07
2019-04-01T12:45:48.786Z,11.27
2019-04-01T12:48:34.661Z,12.83
2019-04-01T12:51:21.778Z,15.30
2019-04-01T12:54:08.205Z,14.33
2019-04-01T12:56:54.359Z,15.27
2019-04-01T12:59:41.117Z,11.67
2019-04-01T13:02:27.378Z,14.17
2019-04-01T13:05:13.676Z,13.23
2019-04-01T13:07:59.897Z,11.87
2019-04-01T13:10:45.939Z,11.60
2019-04-01T13:13:31.911Z,12.57
2019-04-01T13:16:17.960Z,14.80
2019-04-01T13:19:03.868Z,11.03
2019-04-01T13:21:49.730Z,14.30
2019-04-01T13:24:36.060Z,11.63
2019-04-01T13:27:21.998Z,13.83
2019-04-01T13:30:11.474Z,12.97
2019-04-01T13:32:57.671Z,12.47
2019-04-01T13:35:43.692Z,14.47
2019-04-01T13:38:29.815Z,14.37
2019-04-01T13:41:18.974Z,16.87
2019-04-01T13:44:08.557Z,13.27
2019-04-01T13:46:56.320Z,14.33
2019-04-01T13:49:42.359Z,12.53
2019-04-01T13:52:28.996Z,12.77
2019-04-01T13:55:14.975Z,13.40
2019-04-01T13:58:01.012Z,13.85
2019-04-01T14:00:47.160Z,12.83
2019-04-01T14:03:34.225Z,13.83
2019-04-01T14:06:20.101Z,18.03
2019-04-01T14:09:06.517Z,12.23
2019-04-01T14:11:52.699Z,11.27
2019-04-01T14:14:39.208Z,10.63
2019-04-01T14:17:25.367Z,10.88
2019-04-01T14:20:11.396Z,14.10
2019-04-01T14:22:57.783Z,11.97
2019-04-01T14:25:43.637Z,14.17
2019-04-01T14:28:29.507Z,14.30
2019-04-01T14:31:19.035Z,14.47
2019-04-01T14:34:06.141Z,12.20
2019-04-01T14:36:51.035Z,13.15
2019-04-01T14:39:37.061Z,10.48
2019-04-01T14:42:23.008Z,11.27
2019-04-01T14:45:09.066Z,10.10
2019-04-01T14:47:57.449Z,10.73
2019-04-01T14:50:43.269Z,10.03
2019-04-01T14:53:29.378Z,13.80
2019-04-01T14:56:16.697Z,13.77
2019-04-01T14:59:02.997Z,11.77
2019-04-01T15:01:49.285Z,14.73
2019-04-01T15:04:35.373Z,12.47
2019-04-01T15:07:21.740Z,14.67
2019-04-01T15:10:07.971Z,12.97
2019-04-01T15:13:04.949Z,11.83
2019-04-01T15:15:41.605Z,9.73
2019-04-01T15:18:27.583Z,12.83
2019-04-01T15:21:13.972Z,10.40
2019-04-01T15:24:00.595Z,14.03
2019-04-01T15:26:46.592Z,12.97
2019-04-01T15:29:32.693Z,10.13
2019-04-01T15:32:18.639Z,13.20
2019-04-01T15:35:05.165Z,17.20
2019-04-01T15:37:52.148Z,12.60
2019-04-01T15:40:39.111Z,17.33
2019-04-01T15:43:25.480Z,12.60
2019-04-01T15:46:11.901Z,16.03
2019-04-01T15:48:58.358Z,12.27
2019-04-01T15:51:44.459Z,15.27
2019-04-01T15:54:30.567Z,14.00
2019-04-01T15:57:16.893Z,14.87
2019-04-01T16:00:03.455Z,16.07
2019-04-01T16:02:49.732Z,12.77
2019-04-01T16:05:35.953Z,11.03
2019-04-01T16:08:22.432Z,12.33
2019-04-01T16:11:08.763Z,12.93
2019-04-01T16:13:54.866Z,14.33
2019-04-01T16:16:40.898Z,12.67
2019-04-01T16:19:27.046Z,11.40
2019-04-01T16:22:13.118Z,12.67
2019-04-01T16:24:59.212Z,13.87
2019-04-01T16:27:45.200Z,10.03
2019-04-01T16:30:31.375Z,11.37
2019-04-01T16:33:17.253Z,14.50
2019-04-01T16:36:03.526Z,10.93
2019-04-01T16:38:49.599Z,12.37
2019-04-01T16:41:35.936Z,13.67
2019-04-01T16:44:21.908Z,18.00
2019-04-01T16:47:10.173Z,14.97
2019-04-01T16:49:56.227Z,12.50
2019-04-01T16:52:42.475Z,14.07
2019-04-01T16:55:28.629Z,15.67
2019-04-01T16:58:14.562Z,16.13
2019-04-01T17:01:02.538Z,14.13
2019-04-01T17:03:49.183Z,12.87
2019-04-01T17:06:35.341Z,15.23
2019-04-01T17:09:21.559Z,16.70
2019-04-01T17:12:10.327Z,14.73
2019-04-01T17:14:55.203Z,15.10
2019-04-01T17:17:42.316Z,13.60
2019-04-01T17:20:28.641Z,14.53
2019-04-01T17:23:14.708Z,18.73
2019-04-01T17:26:01.101Z,14.40
2019-04-01T17:28:47.351Z,13.43
2019-04-01T17:31:33.292Z,10.87
2019-04-01T17:34:19.680Z,12.23
2019-04-01T17:37:05.663Z,12.83
2019-04-01T17:39:51.669Z,13.50
2019-04-01T17:42:39.352Z,14.47
2019-04-01T17:45:27.489Z,12.83
2019-04-01T17:48:13.848Z,19.03
2019-04-01T17:50:59.735Z,15.83
2019-04-01T17:53:45.986Z,12.77
2019-04-01T17:56:34.518Z,16.03
2019-04-01T17:59:20.855Z,15.87
2019-04-01T18:02:07.342Z,12.87
2019-04-01T18:04:53.495Z,17.33
2019-04-01T18:07:39.610Z,16.20
2019-04-01T18:10:25.767Z,13.93
2019-04-01T18:13:11.662Z,18.17
2019-04-01T18:15:57.830Z,14.40
2019-04-01T18:18:44.807Z,18.33
2019-04-01T18:21:31.964Z,16.07
2019-04-01T18:24:19.274Z,16.00
2019-04-01T18:27:05.587Z,17.63
2019-04-01T18:29:51.730Z,18.00
2019-04-01T18:32:38.107Z,16.30
2019-04-01T18:35:25.252Z,20.20
2019-04-01T18:38:12.077Z,23.53
2019-04-01T18:40:58.492Z,24.00
2019-04-01T18:43:44.457Z,19.20
2019-04-01T18:46:30.486Z,17.37
2019-04-01T18:49:17.599Z,14.33
2019-04-01T18:52:03.803Z,17.47
2019-04-01T18:54:50.155Z,20.07
2019-04-01T18:57:36.311Z,15.70
2019-04-01T19:00:22.813Z,12.03
2019-04-01T19:03:10.446Z,10.50
2019-04-01T19:05:56.723Z,12.27
2019-04-01T19:08:42.709Z,12.00
2019-04-01T19:11:31.020Z,17.97
2019-04-01T19:14:17.132Z,12.27
2019-04-01T19:17:03.455Z,10.43
2019-04-01T19:19:49.432Z,9.60
2019-04-01T19:22:35.394Z,10.73
2019-04-01T19:25:25.742Z,12.10
2019-04-01T19:28:12.269Z,11.30
2019-04-01T19:30:58.693Z,12.67
2019-04-01T19:33:44.589Z,11.33
2019-04-01T19:36:30.768Z,13.40
2019-04-01T19:39:16.922Z,12.63
2019-04-01T19:42:02.899Z,12.03
2019-04-01T19:44:49.036Z,11.80
2019-04-01T19:47:35.472Z,11.67
2019-04-01T19:50:22.004Z,14.10
2019-04-01T19:53:08.374Z,12.67
2019-04-01T19:55:54.336Z,14.30
2019-04-01T19:58:40.231Z,11.93
2019-04-01T20:01:26.451Z,16.90
2019-04-01T20:04:12.701Z,17.27
2019-04-01T20:06:58.683Z,12.63
2019-04-01T20:09:46.281Z,13.33
2019-04-01T20:12:32.652Z,13.23
2019-04-01T20:15:18.602Z,15.73
2019-04-01T20:18:04.597Z,15.73
2019-04-01T20:20:50.568Z,11.73
2019-04-01T20:23:36.791Z,15.80
2019-04-01T20:26:22.950Z,11.63
2019-04-01T20:29:11.048Z,10.90
2019-04-01T20:31:56.934Z,11.43
2019-04-01T20:34:56.096Z,13.47
2019-04-01T20:37:31.213Z,12.13
2019-04-01T20:40:17.591Z,17.70
2019-04-01T20:43:03.580Z,11.93
2019-04-01T20:45:51.867Z,13.00
2019-04-01T20:48:37.873Z,18.63
2019-04-01T20:51:26.979Z,15.80
2019-04-01T20:54:12.965Z,12.97
2019-04-01T20:56:59.155Z,13.90
2019-04-01T20:59:47.343Z,15.80
2019-04-01T21:02:34.845Z,14.40
2019-04-01T21:05:24.249Z,16.57
2019-04-01T21:08:12.689Z,15.27
2019-04-01T21:10:59.008Z,14.27
2019-04-01T21:13:45.285Z,12.07
2019-04-01T21:16:31.281Z,16.33
2019-04-01T21:19:18.013Z,12.63
2019-04-01T21:22:04.185Z,16.30
2019-04-01T21:24:51.001Z,13.53
2019-04-01T21:27:37.333Z,14.93
2019-04-01T21:30:23.295Z,16.73
2019-04-01T21:33:13.163Z,14.53
2019-04-01T21:36:00.197Z,12.03
2019-04-01T21:38:46.456Z,14.87
2019-04-01T21:41:35.797Z,14.37
2019-04-01T21:44:21.465Z,13.70
2019-04-01T21:47:07.425Z,14.90
2019-04-01T21:49:53.505Z,13.67
2019-04-01T21:52:39.465Z,16.63
2019-04-01T21:55:25.776Z,14.50
2019-04-01T21:58:11.855Z,11.80
2019-04-01T22:00:58.886Z,12.60
2019-04-01T22:03:45.192Z,15.70
2019-04-01T22:06:31.150Z,13.93
2019-04-01T22:09:17.421Z,13.40
2019-04-01T22:12:03.515Z,11.67
2019-04-01T22:14:49.457Z,15.00
2019-04-01T22:17:35.508Z,14.30
2019-04-01T22:20:21.754Z,15.57
2019-04-01T22:23:07.952Z,13.17
2019-04-01T22:25:54.458Z,14.57
2019-04-01T22:28:40.592Z,15.37
2019-04-01T22:31:26.611Z,12.67
2019-04-01T22:34:12.525Z,18.23
2019-04-01T22:36:58.520Z,15.27
2019-04-01T22:39:45.538Z,12.70
2019-04-01T22:42:34.337Z,16.07
2019-04-01T22:45:20.653Z,14.67
2019-04-01T22:48:07.239Z,12.20
2019-04-01T22:50:53.166Z,13.87
2019-04-01T22:53:39.320Z,11.60
2019-04-01T22:56:27.029Z,15.57
2019-04-01T22:59:13.296Z,12.10
2019-04-01T23:01:59.635Z,14.00
2019-04-01T23:04:45.893Z,15.13
2019-04-01T23:07:33.022Z,13.23
2019-04-01T23:10:19.326Z,14.13
2019-04-01T23:13:05.656Z,14.20
2019-04-01T23:15:51.794Z,11.87
2019-04-01T23:18:40.828Z,14.53
2019-04-01T23:21:26.952Z,14.57
2019-04-01T23:24:12.943Z,14.40
2019-04-01T23:26:59.218Z,14.60
2019-04-01T23:29:45.172Z,15.83
2019-04-01T23:32:31.156Z,12.07
2019-04-01T23:35:17.352Z,14.03
2019-04-01T23:38:03.424Z,13.40
2019-04-01T23:40:49.796Z,12.67
2019-04-01T23:43:35.732Z,12.23
2019-04-01T23:46:21.961Z,12.57
2019-04-01T23:49:07.813Z,14.17
2019-04-01T23:51:54.124Z,10.93
2019-04-01T23:54:40.035Z,15.60
2019-04-01T23:57:25.969Z,13.97
